sensor_id;sensor_type;location;lat;lon;timestamp;P1;durP1;ratioP1;P2;durP2;ratioP2
55423;SDS011;41294;42.666;23.350;2022-09-13T00:00:34;5.35;;;3.50;;
55423;SDS011;41294;42.666;23.350;2022-09-13T00:03:01;4.20;;;3.80;;
55423;SDS011;41294;42.666;23.350;2022-09-13T00:05:27;4.13;;;3.70;;
55423;SDS011;41294;42.666;23.350;2022-09-13T00:07:52;4.60;;;3.33;;
55423;SDS011;41294;42.666;23.350;2022-09-13T00:10:18;7.72;;;3.92;;
55423;SDS011;41294;42.666;23.350;2022-09-13T00:12:43;3.77;;;3.40;;
55423;SDS011;41294;42.666;23.350;2022-09-13T00:15:09;3.50;;;3.20;;
55423;SDS011;41294;42.666;23.350;2022-09-13T00:17:35;3.50;;;3.20;;
55423;SDS011;41294;42.666;23.350;2022-09-13T00:20:01;3.65;;;3.35;;
55423;SDS011;41294;42.666;23.350;2022-09-13T00:22:27;4.30;;;3.40;;
55423;SDS011;41294;42.666;23.350;2022-09-13T00:24:53;4.70;;;3.77;;
55423;SDS011;41294;42.666;23.350;2022-09-13T00:27:18;3.73;;;3.43;;
55423;SDS011;41294;42.666;23.350;2022-09-13T00:29:45;4.10;;;3.40;;
55423;SDS011;41294;42.666;23.350;2022-09-13T00:32:10;4.13;;;3.47;;
55423;SDS011;41294;42.666;23.350;2022-09-13T00:34:36;5.07;;;4.07;;
55423;SDS011;41294;42.666;23.350;2022-09-13T00:37:02;4.25;;;3.60;;
55423;SDS011;41294;42.666;23.350;2022-09-13T00:39:28;7.23;;;4.10;;
55423;SDS011;41294;42.666;23.350;2022-09-13T00:41:53;5.03;;;3.72;;
55423;SDS011;41294;42.666;23.350;2022-09-13T00:48:07;4.70;;;3.53;;
55423;SDS011;41294;42.666;23.350;2022-09-13T00:50:20;4.00;;;3.60;;
55423;SDS011;41294;42.666;23.350;2022-09-13T00:52:54;6.53;;;3.83;;
55423;SDS011;41294;42.666;23.350;2022-09-13T00:56:05;3.70;;;3.40;;
55423;SDS011;41294;42.666;23.350;2022-09-13T00:58:33;3.30;;;3.10;;
55423;SDS011;41294;42.666;23.350;2022-09-13T01:01:12;3.67;;;3.35;;
55423;SDS011;41294;42.666;23.350;2022-09-13T01:03:40;6.25;;;3.78;;
55423;SDS011;41294;42.666;23.350;2022-09-13T01:06:11;4.53;;;3.70;;
55423;SDS011;41294;42.666;23.350;2022-09-13T01:08:40;3.97;;;3.67;;
55423;SDS011;41294;42.666;23.350;2022-09-13T01:11:14;6.68;;;4.18;;
55423;SDS011;41294;42.666;23.350;2022-09-13T01:13:46;3.75;;;3.45;;
55423;SDS011;41294;42.666;23.350;2022-09-13T01:16:12;4.88;;;3.53;;
55423;SDS011;41294;42.666;23.350;2022-09-13T01:18:37;4.05;;;3.65;;
55423;SDS011;41294;42.666;23.350;2022-09-13T01:26:41;3.55;;;3.25;;
55423;SDS011;41294;42.666;23.350;2022-09-13T01:32:45;3.95;;;3.55;;
55423;SDS011;41294;42.666;23.350;2022-09-13T01:38:37;4.32;;;3.90;;
55423;SDS011;41294;42.666;23.350;2022-09-13T01:48:06;4.45;;;3.58;;
55423;SDS011;41294;42.666;23.350;2022-09-13T01:50:59;4.47;;;3.25;;
55423;SDS011;41294;42.666;23.350;2022-09-13T01:53:38;4.63;;;3.80;;
55423;SDS011;41294;42.666;23.350;2022-09-13T01:56:17;4.90;;;3.55;;
55423;SDS011;41294;42.666;23.350;2022-09-13T02:01:18;5.00;;;3.63;;
55423;SDS011;41294;42.666;23.350;2022-09-13T02:06:40;6.05;;;3.58;;
55423;SDS011;41294;42.666;23.350;2022-09-13T02:09:12;4.80;;;3.80;;
55423;SDS011;41294;42.666;23.350;2022-09-13T02:11:43;6.03;;;4.20;;
55423;SDS011;41294;42.666;23.350;2022-09-13T02:14:19;3.97;;;3.60;;
55423;SDS011;41294;42.666;23.350;2022-09-13T02:16:51;4.03;;;3.63;;
55423;SDS011;41294;42.666;23.350;2022-09-13T02:19:24;4.00;;;3.70;;
55423;SDS011;41294;42.666;23.350;2022-09-13T02:21:57;3.87;;;3.47;;
55423;SDS011;41294;42.666;23.350;2022-09-13T02:24:31;3.95;;;3.65;;
55423;SDS011;41294;42.666;23.350;2022-09-13T02:27:02;6.40;;;3.55;;
55423;SDS011;41294;42.666;23.350;2022-09-13T02:29:32;11.30;;;9.10;;
55423;SDS011;41294;42.666;23.350;2022-09-13T02:32:36;5.70;;;4.27;;
55423;SDS011;41294;42.666;23.350;2022-09-13T02:35:07;4.65;;;4.20;;
55423;SDS011;41294;42.666;23.350;2022-09-13T02:37:39;6.47;;;4.17;;
55423;SDS011;41294;42.666;23.350;2022-09-13T02:40:09;6.25;;;4.95;;
55423;SDS011;41294;42.666;23.350;2022-09-13T02:42:42;6.80;;;5.83;;
55423;SDS011;41294;42.666;23.350;2022-09-13T02:45:12;10.00;;;8.77;;
55423;SDS011;41294;42.666;23.350;2022-09-13T02:56:11;4.33;;;3.93;;
55423;SDS011;41294;42.666;23.350;2022-09-13T02:59:12;6.03;;;3.50;;
55423;SDS011;41294;42.666;23.350;2022-09-13T03:01:39;4.43;;;3.87;;
55423;SDS011;41294;42.666;23.350;2022-09-13T03:04:09;4.00;;;3.60;;
55423;SDS011;41294;42.666;23.350;2022-09-13T03:06:36;3.87;;;3.47;;
55423;SDS011;41294;42.666;23.350;2022-09-13T03:09:03;6.53;;;3.60;;
55423;SDS011;41294;42.666;23.350;2022-09-13T03:19:37;7.03;;;3.43;;
55423;SDS011;41294;42.666;23.350;2022-09-13T03:22:38;4.50;;;3.50;;
55423;SDS011;41294;42.666;23.350;2022-09-13T03:30:39;7.83;;;4.00;;
55423;SDS011;41294;42.666;23.350;2022-09-13T03:33:21;5.68;;;4.20;;
55423;SDS011;41294;42.666;23.350;2022-09-13T03:39:07;3.93;;;3.50;;
55423;SDS011;41294;42.666;23.350;2022-09-13T03:41:46;3.27;;;3.03;;
55423;SDS011;41294;42.666;23.350;2022-09-13T03:44:16;5.20;;;3.60;;
55423;SDS011;41294;42.666;23.350;2022-09-13T03:46:49;5.03;;;3.40;;
55423;SDS011;41294;42.666;23.350;2022-09-13T03:49:20;5.03;;;3.20;;
55423;SDS011;41294;42.666;23.350;2022-09-13T03:51:49;3.70;;;3.40;;
55423;SDS011;41294;42.666;23.350;2022-09-13T03:54:21;4.35;;;3.33;;
55423;SDS011;41294;42.666;23.350;2022-09-13T03:57:30;3.00;;;2.80;;
55423;SDS011;41294;42.666;23.350;2022-09-13T03:59:45;4.13;;;3.80;;
55423;SDS011;41294;42.666;23.350;2022-09-13T04:02:18;4.83;;;3.30;;
55423;SDS011;41294;42.666;23.350;2022-09-13T04:04:44;4.23;;;3.77;;
55423;SDS011;41294;42.666;23.350;2022-09-13T04:07:12;4.30;;;3.90;;
55423;SDS011;41294;42.666;23.350;2022-09-13T04:09:42;6.53;;;4.23;;
55423;SDS011;41294;42.666;23.350;2022-09-13T04:12:07;4.97;;;3.67;;
55423;SDS011;41294;42.666;23.350;2022-09-13T04:14:37;4.28;;;3.88;;
55423;SDS011;41294;42.666;23.350;2022-09-13T04:17:03;5.47;;;3.55;;
55423;SDS011;41294;42.666;23.350;2022-09-13T04:19:29;8.73;;;4.13;;
55423;SDS011;41294;42.666;23.350;2022-09-13T04:21:55;4.07;;;3.67;;
55423;SDS011;41294;42.666;23.350;2022-09-13T04:24:23;5.13;;;3.80;;
55423;SDS011;41294;42.666;23.350;2022-09-13T04:26:50;3.70;;;3.40;;
55423;SDS011;41294;42.666;23.350;2022-09-13T04:29:17;6.50;;;3.70;;
55423;SDS011;41294;42.666;23.350;2022-09-13T04:31:47;8.87;;;3.80;;
55423;SDS011;41294;42.666;23.350;2022-09-13T04:34:13;6.28;;;3.78;;
55423;SDS011;41294;42.666;23.350;2022-09-13T04:36:40;6.83;;;3.80;;
55423;SDS011;41294;42.666;23.350;2022-09-13T04:39:05;3.70;;;3.40;;
55423;SDS011;41294;42.666;23.350;2022-09-13T04:41:31;4.07;;;3.60;;
55423;SDS011;41294;42.666;23.350;2022-09-13T04:44:00;7.80;;;3.83;;
55423;SDS011;41294;42.666;23.350;2022-09-13T04:46:26;6.55;;;4.22;;
55423;SDS011;41294;42.666;23.350;2022-09-13T04:48:52;7.55;;;4.30;;
55423;SDS011;41294;42.666;23.350;2022-09-13T04:51:18;3.97;;;3.10;;
55423;SDS011;41294;42.666;23.350;2022-09-13T04:53:45;5.97;;;3.30;;
55423;SDS011;41294;42.666;23.350;2022-09-13T04:56:16;5.13;;;2.80;;
55423;SDS011;41294;42.666;23.350;2022-09-13T04:58:43;3.70;;;3.17;;
55423;SDS011;41294;42.666;23.350;2022-09-13T05:01:09;4.20;;;3.08;;
55423;SDS011;41294;42.666;23.350;2022-09-13T05:03:35;3.78;;;3.10;;
55423;SDS011;41294;42.666;23.350;2022-09-13T05:06:04;2.60;;;2.25;;
55423;SDS011;41294;42.666;23.350;2022-09-13T05:08:32;4.35;;;2.80;;
55423;SDS011;41294;42.666;23.350;2022-09-13T05:10:58;3.28;;;2.83;;
55423;SDS011;41294;42.666;23.350;2022-09-13T05:13:24;2.75;;;2.55;;
55423;SDS011;41294;42.666;23.350;2022-09-13T05:15:54;6.97;;;2.67;;
55423;SDS011;41294;42.666;23.350;2022-09-13T05:18:21;3.55;;;2.92;;
55423;SDS011;41294;42.666;23.350;2022-09-13T05:20:47;3.97;;;2.58;;
55423;SDS011;41294;42.666;23.350;2022-09-13T05:23:12;10.07;;;3.22;;
55423;SDS011;41294;42.666;23.350;2022-09-13T05:25:38;4.57;;;2.50;;
55423;SDS011;41294;42.666;23.350;2022-09-13T05:28:03;4.25;;;2.92;;
55423;SDS011;41294;42.666;23.350;2022-09-13T05:30:28;2.78;;;2.42;;
55423;SDS011;41294;42.666;23.350;2022-09-13T05:32:54;5.85;;;2.75;;
55423;SDS011;41294;42.666;23.350;2022-09-13T05:35:19;3.35;;;2.63;;
55423;SDS011;41294;42.666;23.350;2022-09-13T05:37:45;3.63;;;2.70;;
55423;SDS011;41294;42.666;23.350;2022-09-13T05:40:10;4.75;;;2.35;;
55423;SDS011;41294;42.666;23.350;2022-09-13T05:42:35;4.38;;;2.28;;
55423;SDS011;41294;42.666;23.350;2022-09-13T05:45:01;6.43;;;2.53;;
55423;SDS011;41294;42.666;23.350;2022-09-13T05:47:26;2.60;;;2.40;;
55423;SDS011;41294;42.666;23.350;2022-09-13T05:49:52;5.57;;;2.60;;
55423;SDS011;41294;42.666;23.350;2022-09-13T05:52:17;5.05;;;2.55;;
55423;SDS011;41294;42.666;23.350;2022-09-13T05:54:42;2.65;;;2.38;;
55423;SDS011;41294;42.666;23.350;2022-09-13T05:57:08;6.38;;;2.60;;
55423;SDS011;41294;42.666;23.350;2022-09-13T05:59:33;4.03;;;2.63;;
55423;SDS011;41294;42.666;23.350;2022-09-13T06:01:59;5.35;;;2.60;;
55423;SDS011;41294;42.666;23.350;2022-09-13T06:04:24;4.03;;;2.42;;
55423;SDS011;41294;42.666;23.350;2022-09-13T06:06:49;2.30;;;2.08;;
55423;SDS011;41294;42.666;23.350;2022-09-13T06:09:16;4.97;;;2.58;;
55423;SDS011;41294;42.666;23.350;2022-09-13T06:11:42;3.03;;;2.15;;
55423;SDS011;41294;42.666;23.350;2022-09-13T06:14:08;3.38;;;2.25;;
55423;SDS011;41294;42.666;23.350;2022-09-13T06:16:33;7.82;;;2.60;;
55423;SDS011;41294;42.666;23.350;2022-09-13T06:18:59;2.40;;;2.20;;
55423;SDS011;41294;42.666;23.350;2022-09-13T06:21:25;4.28;;;2.50;;
55423;SDS011;41294;42.666;23.350;2022-09-13T06:23:51;4.38;;;2.60;;
55423;SDS011;41294;42.666;23.350;2022-09-13T06:26:22;6.90;;;2.50;;
55423;SDS011;41294;42.666;23.350;2022-09-13T06:28:50;8.57;;;2.67;;
55423;SDS011;41294;42.666;23.350;2022-09-13T06:31:18;2.75;;;2.38;;
55423;SDS011;41294;42.666;23.350;2022-09-13T06:33:45;4.18;;;2.20;;
55423;SDS011;41294;42.666;23.350;2022-09-13T06:36:12;2.95;;;2.33;;
55423;SDS011;41294;42.666;23.350;2022-09-13T06:38:39;10.25;;;2.50;;
55423;SDS011;41294;42.666;23.350;2022-09-13T06:41:09;2.00;;;1.88;;
55423;SDS011;41294;42.666;23.350;2022-09-13T06:43:56;5.22;;;2.47;;
55423;SDS011;41294;42.666;23.350;2022-09-13T06:46:23;3.20;;;2.00;;
55423;SDS011;41294;42.666;23.350;2022-09-13T06:48:50;3.60;;;2.40;;
55423;SDS011;41294;42.666;23.350;2022-09-13T06:51:17;3.25;;;2.58;;
55423;SDS011;41294;42.666;23.350;2022-09-13T06:53:45;2.50;;;2.30;;
55423;SDS011;41294;42.666;23.350;2022-09-13T06:58:40;5.80;;;2.20;;
55423;SDS011;41294;42.666;23.350;2022-09-13T07:01:11;4.82;;;2.40;;
55423;SDS011;41294;42.666;23.350;2022-09-13T07:03:37;3.15;;;2.47;;
55423;SDS011;41294;42.666;23.350;2022-09-13T07:06:07;2.22;;;2.03;;
55423;SDS011;41294;42.666;23.350;2022-09-13T07:08:34;9.35;;;2.42;;
55423;SDS011;41294;42.666;23.350;2022-09-13T07:11:00;7.55;;;2.63;;
55423;SDS011;41294;42.666;23.350;2022-09-13T07:13:26;3.10;;;2.72;;
55423;SDS011;41294;42.666;23.350;2022-09-13T07:15:51;6.22;;;3.13;;
55423;SDS011;41294;42.666;23.350;2022-09-13T07:18:16;5.68;;;2.88;;
55423;SDS011;41294;42.666;23.350;2022-09-13T07:20:42;6.45;;;2.67;;
55423;SDS011;41294;42.666;23.350;2022-09-13T07:23:07;2.20;;;1.83;;
55423;SDS011;41294;42.666;23.350;2022-09-13T07:25:33;2.70;;;2.20;;
55423;SDS011;41294;42.666;23.350;2022-09-13T07:27:59;3.17;;;2.15;;
55423;SDS011;41294;42.666;23.350;2022-09-13T07:30:24;2.42;;;2.08;;
55423;SDS011;41294;42.666;23.350;2022-09-13T07:32:50;3.35;;;2.13;;
55423;SDS011;41294;42.666;23.350;2022-09-13T07:35:16;4.75;;;2.08;;
55423;SDS011;41294;42.666;23.350;2022-09-13T07:37:41;4.75;;;2.38;;
55423;SDS011;41294;42.666;23.350;2022-09-13T07:40:09;1.95;;;1.85;;
55423;SDS011;41294;42.666;23.350;2022-09-13T07:42:35;3.60;;;2.30;;
55423;SDS011;41294;42.666;23.350;2022-09-13T07:45:00;4.70;;;2.30;;
55423;SDS011;41294;42.666;23.350;2022-09-13T07:47:26;6.30;;;2.10;;
55423;SDS011;41294;42.666;23.350;2022-09-13T07:49:51;2.40;;;2.25;;
55423;SDS011;41294;42.666;23.350;2022-09-13T07:52:17;3.50;;;2.22;;
55423;SDS011;41294;42.666;23.350;2022-09-13T07:54:42;3.83;;;2.25;;
55423;SDS011;41294;42.666;23.350;2022-09-13T07:57:07;3.20;;;2.13;;
55423;SDS011;41294;42.666;23.350;2022-09-13T07:59:33;2.13;;;1.85;;
55423;SDS011;41294;42.666;23.350;2022-09-13T08:01:58;2.40;;;2.20;;
55423;SDS011;41294;42.666;23.350;2022-09-13T08:04:24;2.47;;;2.28;;
55423;SDS011;41294;42.666;23.350;2022-09-13T08:06:50;2.45;;;2.20;;
55423;SDS011;41294;42.666;23.350;2022-09-13T08:09:16;6.60;;;2.67;;
55423;SDS011;41294;42.666;23.350;2022-09-13T08:11:46;4.03;;;2.10;;
55423;SDS011;41294;42.666;23.350;2022-09-13T08:14:17;4.00;;;2.03;;
55423;SDS011;41294;42.666;23.350;2022-09-13T08:16:44;3.67;;;2.55;;
55423;SDS011;41294;42.666;23.350;2022-09-13T08:19:19;2.40;;;2.20;;
55423;SDS011;41294;42.666;23.350;2022-09-13T08:21:44;3.75;;;2.22;;
55423;SDS011;41294;42.666;23.350;2022-09-13T08:24:13;3.20;;;2.22;;
55423;SDS011;41294;42.666;23.350;2022-09-13T08:26:43;13.50;;;2.72;;
55423;SDS011;41294;42.666;23.350;2022-09-13T08:29:09;3.67;;;2.22;;
55423;SDS011;41294;42.666;23.350;2022-09-13T08:31:36;3.50;;;2.35;;
55423;SDS011;41294;42.666;23.350;2022-09-13T08:34:02;3.60;;;1.90;;
55423;SDS011;41294;42.666;23.350;2022-09-13T08:36:28;2.55;;;2.35;;
55423;SDS011;41294;42.666;23.350;2022-09-13T08:38:55;3.40;;;1.77;;
55423;SDS011;41294;42.666;23.350;2022-09-13T08:41:30;3.75;;;2.00;;
55423;SDS011;41294;42.666;23.350;2022-09-13T08:44:40;5.03;;;2.45;;
55423;SDS011;41294;42.666;23.350;2022-09-13T09:01:27;6.82;;;2.28;;
55423;SDS011;41294;42.666;23.350;2022-09-13T09:06:44;5.00;;;2.15;;
55423;SDS011;41294;42.666;23.350;2022-09-13T09:09:15;1.67;;;1.40;;
55423;SDS011;41294;42.666;23.350;2022-09-13T09:14:14;5.15;;;2.17;;
55423;SDS011;41294;42.666;23.350;2022-09-13T09:17:03;7.07;;;1.70;;
55423;SDS011;41294;42.666;23.350;2022-09-13T09:19:36;1.33;;;1.23;;
55423;SDS011;41294;42.666;23.350;2022-09-13T09:22:04;3.97;;;1.80;;
55423;SDS011;41294;42.666;23.350;2022-09-13T09:24:37;2.92;;;1.90;;
55423;SDS011;41294;42.666;23.350;2022-09-13T09:27:09;3.20;;;1.80;;
55423;SDS011;41294;42.666;23.350;2022-09-13T09:29:39;2.45;;;1.75;;
55423;SDS011;41294;42.666;23.350;2022-09-13T09:37:39;2.22;;;1.95;;
55423;SDS011;41294;42.666;23.350;2022-09-13T09:40:10;1.60;;;1.50;;
55423;SDS011;41294;42.666;23.350;2022-09-13T09:42:40;3.72;;;2.00;;
55423;SDS011;41294;42.666;23.350;2022-09-13T09:45:32;1.95;;;1.80;;
55423;SDS011;41294;42.666;23.350;2022-09-13T09:48:04;1.95;;;1.63;;
55423;SDS011;41294;42.666;23.350;2022-09-13T09:50:37;2.10;;;1.60;;
55423;SDS011;41294;42.666;23.350;2022-09-13T09:53:15;3.20;;;1.73;;
55423;SDS011;41294;42.666;23.350;2022-09-13T09:55:50;2.03;;;1.50;;
55423;SDS011;41294;42.666;23.350;2022-09-13T09:58:43;6.10;;;2.00;;
55423;SDS011;41294;42.666;23.350;2022-09-13T10:01:18;3.67;;;2.10;;
55423;SDS011;41294;42.666;23.350;2022-09-13T10:06:36;5.72;;;2.10;;
55423;SDS011;41294;42.666;23.350;2022-09-13T10:09:13;3.38;;;1.73;;
55423;SDS011;41294;42.666;23.350;2022-09-13T10:11:51;1.65;;;1.55;;
55423;SDS011;41294;42.666;23.350;2022-09-13T10:17:19;2.53;;;2.10;;
55423;SDS011;41294;42.666;23.350;2022-09-13T10:19:52;4.30;;;2.05;;
55423;SDS011;41294;42.666;23.350;2022-09-13T10:22:30;7.50;;;2.00;;
55423;SDS011;41294;42.666;23.350;2022-09-13T10:25:13;2.28;;;2.10;;
55423;SDS011;41294;42.666;23.350;2022-09-13T10:27:51;2.03;;;1.80;;
55423;SDS011;41294;42.666;23.350;2022-09-13T10:30:34;2.25;;;2.10;;
55423;SDS011;41294;42.666;23.350;2022-09-13T10:33:04;5.80;;;2.15;;
55423;SDS011;41294;42.666;23.350;2022-09-13T10:35:32;2.78;;;2.58;;
55423;SDS011;41294;42.666;23.350;2022-09-13T10:37:58;5.05;;;2.22;;
55423;SDS011;41294;42.666;23.350;2022-09-13T10:40:30;1.83;;;1.73;;
55423;SDS011;41294;42.666;23.350;2022-09-13T10:43:03;1.83;;;1.73;;
55423;SDS011;41294;42.666;23.350;2022-09-13T10:45:37;3.35;;;2.00;;
55423;SDS011;41294;42.666;23.350;2022-09-13T10:48:09;3.13;;;2.00;;
55423;SDS011;41294;42.666;23.350;2022-09-13T10:50:40;7.65;;;1.80;;
55423;SDS011;41294;42.666;23.350;2022-09-13T10:55:59;1.67;;;1.58;;
55423;SDS011;41294;42.666;23.350;2022-09-13T10:58:26;5.82;;;2.22;;
55423;SDS011;41294;42.666;23.350;2022-09-13T11:09:36;3.05;;;1.73;;
55423;SDS011;41294;42.666;23.350;2022-09-13T11:12:36;1.83;;;1.73;;
55423;SDS011;41294;42.666;23.350;2022-09-13T11:28:30;1.80;;;1.70;;
55423;SDS011;41294;42.666;23.350;2022-09-13T11:56:00;3.40;;;2.10;;
55423;SDS011;41294;42.666;23.350;2022-09-13T11:58:50;5.05;;;1.73;;
55423;SDS011;41294;42.666;23.350;2022-09-13T12:01:52;1.85;;;1.75;;
55423;SDS011;41294;42.666;23.350;2022-09-13T12:04:18;2.60;;;2.08;;
55423;SDS011;41294;42.666;23.350;2022-09-13T12:06:51;5.75;;;1.90;;
55423;SDS011;41294;42.666;23.350;2022-09-13T12:09:25;5.72;;;1.77;;
55423;SDS011;41294;42.666;23.350;2022-09-13T12:14:41;3.05;;;1.90;;
55423;SDS011;41294;42.666;23.350;2022-09-13T12:17:21;1.70;;;1.60;;
55423;SDS011;41294;42.666;23.350;2022-09-13T12:19:52;1.80;;;1.70;;
55423;SDS011;41294;42.666;23.350;2022-09-13T12:22:22;2.00;;;1.50;;
55423;SDS011;41294;42.666;23.350;2022-09-13T12:24:55;1.92;;;1.65;;
55423;SDS011;41294;42.666;23.350;2022-09-13T12:27:28;4.20;;;2.30;;
55423;SDS011;41294;42.666;23.350;2022-09-13T12:32:38;3.88;;;1.90;;
55423;SDS011;41294;42.666;23.350;2022-09-13T12:35:07;4.95;;;1.58;;
55423;SDS011;41294;42.666;23.350;2022-09-13T12:46:11;2.20;;;1.80;;
55423;SDS011;41294;42.666;23.350;2022-09-13T13:00:00;2.92;;;1.50;;
55423;SDS011;41294;42.666;23.350;2022-09-13T13:04:57;2.28;;;1.67;;
55423;SDS011;41294;42.666;23.350;2022-09-13T13:07:27;7.65;;;1.80;;
55423;SDS011;41294;42.666;23.350;2022-09-13T13:09:56;1.75;;;1.65;;
55423;SDS011;41294;42.666;23.350;2022-09-13T13:14:56;2.05;;;1.42;;
55423;SDS011;41294;42.666;23.350;2022-09-13T13:17:38;3.53;;;1.90;;
55423;SDS011;41294;42.666;23.350;2022-09-13T13:33:52;2.85;;;1.40;;
55423;SDS011;41294;42.666;23.350;2022-09-13T13:38:59;1.90;;;1.70;;
55423;SDS011;41294;42.666;23.350;2022-09-13T13:43:57;3.45;;;1.73;;
55423;SDS011;41294;42.666;23.350;2022-09-13T13:46:49;4.50;;;2.00;;
55423;SDS011;41294;42.666;23.350;2022-09-13T14:02:36;1.92;;;1.83;;
55423;SDS011;41294;42.666;23.350;2022-09-13T14:10:35;2.00;;;1.80;;
55423;SDS011;41294;42.666;23.350;2022-09-13T14:13:21;2.85;;;2.05;;
55423;SDS011;41294;42.666;23.350;2022-09-13T14:21:28;2.42;;;2.03;;
55423;SDS011;41294;42.666;23.350;2022-09-13T14:24:36;2.22;;;2.00;;
55423;SDS011;41294;42.666;23.350;2022-09-13T14:26:43;2.00;;;1.90;;
55423;SDS011;41294;42.666;23.350;2022-09-13T14:29:17;4.03;;;2.20;;
55423;SDS011;41294;42.666;23.350;2022-09-13T14:31:45;2.53;;;1.67;;
55423;SDS011;41294;42.666;23.350;2022-09-13T14:34:22;3.00;;;2.20;;
55423;SDS011;41294;42.666;23.350;2022-09-13T14:36:55;2.78;;;2.30;;
55423;SDS011;41294;42.666;23.350;2022-09-13T14:39:23;3.75;;;1.90;;
55423;SDS011;41294;42.666;23.350;2022-09-13T14:41:57;3.10;;;2.10;;
55423;SDS011;41294;42.666;23.350;2022-09-13T14:44:25;3.08;;;2.33;;
55423;SDS011;41294;42.666;23.350;2022-09-13T14:47:00;7.05;;;2.35;;
55423;SDS011;41294;42.666;23.350;2022-09-13T14:49:33;1.92;;;1.83;;
55423;SDS011;41294;42.666;23.350;2022-09-13T14:52:27;3.47;;;2.10;;
55423;SDS011;41294;42.666;23.350;2022-09-13T14:54:56;3.75;;;2.88;;
55423;SDS011;41294;42.666;23.350;2022-09-13T14:57:30;4.70;;;2.10;;
55423;SDS011;41294;42.666;23.350;2022-09-13T15:00:00;5.28;;;1.88;;
55423;SDS011;41294;42.666;23.350;2022-09-13T15:05:20;2.42;;;1.90;;
55423;SDS011;41294;42.666;23.350;2022-09-13T15:07:48;1.98;;;1.88;;
55423;SDS011;41294;42.666;23.350;2022-09-13T15:12:50;5.07;;;2.33;;
55423;SDS011;41294;42.666;23.350;2022-09-13T15:20:15;2.53;;;2.33;;
55423;SDS011;41294;42.666;23.350;2022-09-13T15:22:41;4.07;;;2.25;;
55423;SDS011;41294;42.666;23.350;2022-09-13T15:25:15;3.22;;;2.25;;
55423;SDS011;41294;42.666;23.350;2022-09-13T15:27:48;3.50;;;2.20;;
55423;SDS011;41294;42.666;23.350;2022-09-13T15:32:49;2.60;;;2.20;;
55423;SDS011;41294;42.666;23.350;2022-09-13T15:35:38;2.17;;;1.80;;
55423;SDS011;41294;42.666;23.350;2022-09-13T15:40:43;4.85;;;2.42;;
55423;SDS011;41294;42.666;23.350;2022-09-13T15:43:11;4.60;;;2.35;;
55423;SDS011;41294;42.666;23.350;2022-09-13T15:45:36;4.47;;;2.40;;
55423;SDS011;41294;42.666;23.350;2022-09-13T15:48:02;5.85;;;2.30;;
55423;SDS011;41294;42.666;23.350;2022-09-13T15:50:29;2.58;;;2.25;;
55423;SDS011;41294;42.666;23.350;2022-09-13T15:52:59;2.45;;;2.25;;
55423;SDS011;41294;42.666;23.350;2022-09-13T15:55:25;4.13;;;2.20;;
55423;SDS011;41294;42.666;23.350;2022-09-13T15:57:52;2.92;;;2.70;;
55423;SDS011;41294;42.666;23.350;2022-09-13T16:00:23;4.32;;;3.20;;
55423;SDS011;41294;42.666;23.350;2022-09-13T16:02:51;4.05;;;2.58;;
55423;SDS011;41294;42.666;23.350;2022-09-13T16:05:17;2.83;;;2.22;;
55423;SDS011;41294;42.666;23.350;2022-09-13T16:07:43;4.07;;;2.50;;
55423;SDS011;41294;42.666;23.350;2022-09-13T16:10:10;6.78;;;2.50;;
55423;SDS011;41294;42.666;23.350;2022-09-13T16:12:46;2.60;;;2.40;;
55423;SDS011;41294;42.666;23.350;2022-09-13T16:15:12;3.25;;;2.95;;
55423;SDS011;41294;42.666;23.350;2022-09-13T16:17:38;2.95;;;2.63;;
55423;SDS011;41294;42.666;23.350;2022-09-13T16:20:04;3.10;;;2.63;;
55423;SDS011;41294;42.666;23.350;2022-09-13T16:22:32;2.53;;;2.33;;
55423;SDS011;41294;42.666;23.350;2022-09-13T16:24:57;2.88;;;2.55;;
55423;SDS011;41294;42.666;23.350;2022-09-13T16:27:23;3.10;;;2.80;;
55423;SDS011;41294;42.666;23.350;2022-09-13T16:29:50;3.10;;;2.83;;
55423;SDS011;41294;42.666;23.350;2022-09-13T16:32:16;2.63;;;2.22;;
55423;SDS011;41294;42.666;23.350;2022-09-13T16:34:42;3.22;;;2.80;;
55423;SDS011;41294;42.666;23.350;2022-09-13T16:37:09;5.50;;;2.60;;
55423;SDS011;41294;42.666;23.350;2022-09-13T16:39:38;2.67;;;2.47;;
55423;SDS011;41294;42.666;23.350;2022-09-13T16:42:03;4.07;;;2.47;;
55423;SDS011;41294;42.666;23.350;2022-09-13T16:44:29;2.58;;;2.38;;
55423;SDS011;41294;42.666;23.350;2022-09-13T16:46:55;4.03;;;2.92;;
55423;SDS011;41294;42.666;23.350;2022-09-13T16:49:20;4.55;;;2.95;;
55423;SDS011;41294;42.666;23.350;2022-09-13T16:51:47;4.70;;;3.45;;
55423;SDS011;41294;42.666;23.350;2022-09-13T16:54:12;4.07;;;2.92;;
55423;SDS011;41294;42.666;23.350;2022-09-13T16:56:38;3.83;;;2.78;;
55423;SDS011;41294;42.666;23.350;2022-09-13T16:59:04;3.88;;;3.28;;
55423;SDS011;41294;42.666;23.350;2022-09-13T17:01:29;5.88;;;3.40;;
55423;SDS011;41294;42.666;23.350;2022-09-13T17:03:55;4.80;;;3.88;;
55423;SDS011;41294;42.666;23.350;2022-09-13T17:06:21;4.28;;;3.72;;
55423;SDS011;41294;42.666;23.350;2022-09-13T17:09:06;4.22;;;3.70;;
55423;SDS011;41294;42.666;23.350;2022-09-13T17:11:33;9.73;;;3.70;;
55423;SDS011;41294;42.666;23.350;2022-09-13T17:14:01;5.30;;;3.78;;
55423;SDS011;41294;42.666;23.350;2022-09-13T17:19:03;4.93;;;3.20;;
55423;SDS011;41294;42.666;23.350;2022-09-13T17:21:30;3.50;;;3.20;;
55423;SDS011;41294;42.666;23.350;2022-09-13T17:23:57;5.50;;;3.50;;
55423;SDS011;41294;42.666;23.350;2022-09-13T17:26:23;6.13;;;3.78;;
55423;SDS011;41294;42.666;23.350;2022-09-13T17:28:49;4.75;;;3.83;;
55423;SDS011;41294;42.666;23.350;2022-09-13T17:31:16;4.47;;;4.03;;
55423;SDS011;41294;42.666;23.350;2022-09-13T17:33:42;7.05;;;4.78;;
55423;SDS011;41294;42.666;23.350;2022-09-13T17:36:08;5.53;;;4.70;;
55423;SDS011;41294;42.666;23.350;2022-09-13T17:38:35;4.35;;;3.95;;
55423;SDS011;41294;42.666;23.350;2022-09-13T17:41:11;6.85;;;3.85;;
55423;SDS011;41294;42.666;23.350;2022-09-13T17:43:39;6.55;;;4.20;;
55423;SDS011;41294;42.666;23.350;2022-09-13T17:46:08;6.25;;;5.35;;
55423;SDS011;41294;42.666;23.350;2022-09-13T17:48:36;4.50;;;4.07;;
55423;SDS011;41294;42.666;23.350;2022-09-13T17:51:03;6.82;;;3.78;;
55423;SDS011;41294;42.666;23.350;2022-09-13T17:53:30;5.15;;;3.95;;
55423;SDS011;41294;42.666;23.350;2022-09-13T17:55:56;4.45;;;3.55;;
55423;SDS011;41294;42.666;23.350;2022-09-13T17:58:25;4.63;;;4.05;;
55423;SDS011;41294;42.666;23.350;2022-09-13T18:00:58;4.55;;;3.97;;
55423;SDS011;41294;42.666;23.350;2022-09-13T18:03:31;6.90;;;3.45;;
55423;SDS011;41294;42.666;23.350;2022-09-13T18:05:57;4.07;;;3.22;;
55423;SDS011;41294;42.666;23.350;2022-09-13T18:08:27;4.35;;;3.80;;
55423;SDS011;41294;42.666;23.350;2022-09-13T18:10:53;3.70;;;3.35;;
55423;SDS011;41294;42.666;23.350;2022-09-13T18:13:19;3.90;;;3.50;;
55423;SDS011;41294;42.666;23.350;2022-09-13T18:15:55;4.03;;;3.72;;
55423;SDS011;41294;42.666;23.350;2022-09-13T18:18:21;4.10;;;3.70;;
55423;SDS011;41294;42.666;23.350;2022-09-13T18:20:47;6.20;;;4.00;;
55423;SDS011;41294;42.666;23.350;2022-09-13T18:23:12;5.25;;;4.43;;
55423;SDS011;41294;42.666;23.350;2022-09-13T18:25:38;3.88;;;3.55;;
55423;SDS011;41294;42.666;23.350;2022-09-13T18:28:03;4.93;;;4.28;;
55423;SDS011;41294;42.666;23.350;2022-09-13T18:30:30;7.30;;;3.60;;
55423;SDS011;41294;42.666;23.350;2022-09-13T18:32:55;4.63;;;4.13;;
55423;SDS011;41294;42.666;23.350;2022-09-13T18:35:21;4.05;;;3.75;;
55423;SDS011;41294;42.666;23.350;2022-09-13T18:37:46;10.32;;;4.38;;